Time;durP1;ratioP1;P1;durP2;ratioP2;P2;SDS_P1;SDS_P2;PMS_P1;PMS_P2;Temp;Humidity;BMP_temperature;BMP_pressure;BME280_temperature;BME280_humidity;BME280_pressure;Samples;Min_cycle;Max_cycle;Signal;HPM_P1;HPM_P2
2023/10/19 00:00:56;;;;;;;20.05;12.32;;;;;;;11.57;100.00;99026.38;5056486;28;20120;-66
2023/10/19 00:03:23;;;;;;;18.77;13.02;;;;;;;11.59;100.00;99028.88;5060070;28;20035;-66
2023/10/19 00:05:49;;;;;;;18.60;12.60;;;;;;;11.62;100.00;99032.19;5047982;28;20131;-65
2023/10/19 00:08:17;;;;;;;19.33;13.10;;;;;;;11.65;100.00;99026.91;5054621;28;20099;-66
2023/10/19 00:10:47;;;;;;;19.52;13.63;;;;;;;11.64;100.00;99022.63;5054963;28;20043;-66
2023/10/19 00:13:13;;;;;;;18.23;12.38;;;;;;;11.65;100.00;99016.53;5054278;28;20036;-66
2023/10/19 00:15:40;;;;;;;19.23;13.15;;;;;;;11.67;100.00;99019.91;5056810;28;20032;-66
2023/10/19 00:23:13;;;;;;;19.05;12.63;;;;;;;11.70;100.00;98995.63;5054138;28;20044;-66
2023/10/19 00:25:41;;;;;;;18.67;13.50;;;;;;;11.73;100.00;98987.75;5053059;28;20620;-66
2023/10/19 00:28:07;;;;;;;17.63;12.40;;;;;;;11.78;100.00;98985.84;5058692;28;20595;-66
2023/10/19 00:30:35;;;;;;;17.85;12.43;;;;;;;11.81;100.00;99009.00;5057662;28;20037;-66
2023/10/19 00:33:03;;;;;;;19.98;12.23;;;;;;;11.80;100.00;99005.56;5055507;28;20073;-66
2023/10/19 00:35:42;;;;;;;18.27;12.68;;;;;;;11.87;100.00;98998.41;5056922;28;20743;-66
2023/10/19 00:43:45;;;;;;;23.20;11.68;;;;;;;11.92;100.00;99004.22;5058647;28;20037;-66
2023/10/19 00:48:56;;;;;;;19.13;13.30;;;;;;;11.95;100.00;98998.91;5056392;28;20297;-66
2023/10/19 00:54:08;;;;;;;16.55;12.23;;;;;;;11.99;100.00;99010.00;5056070;28;20043;-66
2023/10/19 00:56:34;;;;;;;16.60;11.15;;;;;;;11.96;100.00;99007.53;5056435;28;20041;-66
2023/10/19 00:59:14;;;;;;;17.73;12.73;;;;;;;12.00;100.00;99009.06;5054781;28;20044;-65
2023/10/19 01:01:44;;;;;;;19.67;12.18;;;;;;;12.02;100.00;99008.09;5060123;28;20032;-65
2023/10/19 01:04:14;;;;;;;18.30;12.88;;;;;;;12.02;100.00;99005.50;5056374;28;20533;-65
2023/10/19 01:06:43;;;;;;;18.52;11.32;;;;;;;12.00;100.00;99006.47;5058379;28;20038;-66
2023/10/19 01:09:17;;;;;;;18.00;11.48;;;;;;;11.95;100.00;99008.41;5057493;28;20024;-67
2023/10/19 01:11:49;;;;;;;18.00;12.10;;;;;;;11.90;100.00;99011.19;5059106;28;20508;-65
2023/10/19 01:14:21;;;;;;;18.50;12.43;;;;;;;11.90;100.00;99014.63;5053737;28;20292;-66
2023/10/19 01:16:49;;;;;;;19.15;12.77;;;;;;;11.90;100.00;99004.25;5075342;28;20043;-65
2023/10/19 01:19:18;;;;;;;21.48;13.23;;;;;;;11.95;100.00;99000.66;5082548;28;20067;-65
2023/10/19 01:21:50;;;;;;;19.70;13.02;;;;;;;12.00;100.00;98999.56;5073203;28;20771;-65
2023/10/19 01:24:16;;;;;;;17.95;12.02;;;;;;;12.03;100.00;98990.81;5053203;28;20082;-65
2023/10/19 01:26:42;;;;;;;21.08;12.52;;;;;;;12.05;100.00;98995.00;5059276;28;20694;-65
2023/10/19 01:29:17;;;;;;;20.17;12.88;;;;;;;12.07;100.00;98995.81;5062465;28;20119;-65
2023/10/19 01:34:37;;;;;;;18.08;12.65;;;;;;;12.10;100.00;98998.25;5039046;28;20036;-65
2023/10/19 01:37:04;;;;;;;17.88;12.23;;;;;;;12.13;100.00;98999.88;5045961;28;20036;-66
2023/10/19 01:39:38;;;;;;;18.65;13.07;;;;;;;12.15;100.00;99000.63;5052671;28;20530;-65
2023/10/19 01:42:04;;;;;;;17.58;12.85;;;;;;;12.17;100.00;99001.41;5059023;28;20048;-65
2023/10/19 01:44:30;;;;;;;18.55;13.02;;;;;;;12.18;100.00;99000.50;5049990;28;20064;-65
2023/10/19 01:46:56;;;;;;;21.45;13.15;;;;;;;12.17;100.00;98993.63;5058357;28;20503;-65
2023/10/19 01:49:30;;;;;;;18.05;12.55;;;;;;;12.18;100.00;98996.19;5053063;28;20045;-65
2023/10/19 01:51:56;;;;;;;18.00;12.35;;;;;;;12.19;100.00;98992.69;5046008;28;20144;-66
2023/10/19 01:54:24;;;;;;;20.80;12.75;;;;;;;12.21;100.00;98995.19;5047486;28;20067;-65
2023/10/19 01:56:56;;;;;;;18.98;12.43;;;;;;;12.20;100.00;98981.41;5044125;28;20115;-65
2023/10/19 01:59:26;;;;;;;15.77;11.93;;;;;;;12.21;100.00;98969.31;5061828;28;20116;-65
2023/10/19 02:01:54;;;;;;;18.30;12.38;;;;;;;12.21;100.00;98970.16;5057462;28;20093;-65
2023/10/19 02:04:21;;;;;;;18.35;12.05;;;;;;;12.22;100.00;98971.84;5052337;28;20032;-65
2023/10/19 02:06:48;;;;;;;16.92;12.43;;;;;;;12.23;100.00;98970.06;5056636;28;20065;-65
2023/10/19 02:09:21;;;;;;;18.63;12.60;;;;;;;12.24;100.00;98970.00;5043682;28;20641;-66
2023/10/19 02:11:57;;;;;;;18.58;12.70;;;;;;;12.24;100.00;98957.06;5043460;28;20123;-65
2023/10/19 02:14:28;;;;;;;17.55;12.65;;;;;;;12.25;100.00;98963.09;5053475;28;20037;-65
2023/10/19 02:16:56;;;;;;;18.95;12.30;;;;;;;12.26;100.00;98965.59;5058606;28;20037;-65
2023/10/19 02:19:23;;;;;;;19.77;12.65;;;;;;;12.28;100.00;98958.63;5062134;28;20037;-66
2023/10/19 02:21:52;;;;;;;16.77;11.60;;;;;;;12.30;100.00;98963.72;5058834;28;20166;-65
2023/10/19 02:24:18;;;;;;;16.45;12.00;;;;;;;12.31;100.00;98947.28;5054554;28;20411;-65
2023/10/19 02:26:46;;;;;;;17.05;11.57;;;;;;;12.31;100.00;98953.31;5062266;28;20021;-65
2023/10/19 02:29:12;;;;;;;15.20;11.32;;;;;;;12.30;100.00;98953.34;5057169;28;20029;-65
2023/10/19 02:31:40;;;;;;;19.13;11.57;;;;;;;12.27;100.00;98962.09;5058196;28;20051;-65
2023/10/19 02:34:10;;;;;;;19.13;12.32;;;;;;;12.31;100.00;98970.59;5051457;28;20086;-65
2023/10/19 02:36:37;;;;;;;17.92;11.68;;;;;;;12.33;100.00;98972.19;5061204;28;20040;-65
2023/10/19 02:39:11;;;;;;;17.42;11.60;;;;;;;12.38;100.00;98967.66;5058275;28;20127;-65
2023/10/19 02:41:38;;;;;;;14.80;11.70;;;;;;;12.41;100.00;98964.91;5058960;28;20029;-65
2023/10/19 02:44:19;;;;;;;19.45;12.20;;;;;;;12.41;100.00;98957.16;5053196;28;20277;-64
2023/10/19 02:46:50;;;;;;;17.13;11.32;;;;;;;12.42;100.00;98960.59;5060956;28;20120;-65
2023/10/19 02:49:21;;;;;;;18.60;12.77;;;;;;;12.42;100.00;98958.00;5061923;28;20048;-64
2023/10/19 02:51:47;;;;;;;16.30;11.50;;;;;;;12.43;100.00;98962.28;5058402;28;20628;-64
2023/10/19 02:54:22;;;;;;;14.55;10.65;;;;;;;12.43;100.00;98957.91;5059598;28;20498;-65
2023/10/19 02:56:53;;;;;;;18.80;12.80;;;;;;;12.46;100.00;98949.19;5058953;28;20096;-64
2023/10/19 02:59:22;;;;;;;16.42;11.45;;;;;;;12.46;100.00;98946.59;5060341;28;20041;-65
2023/10/19 03:01:54;;;;;;;19.13;11.40;;;;;;;12.46;100.00;98950.00;5059411;28;20089;-65
2023/10/19 03:04:20;;;;;;;18.02;11.90;;;;;;;12.43;100.00;98950.13;5058986;28;21873;-65
2023/10/19 03:06:45;;;;;;;17.25;11.77;;;;;;;12.43;100.00;98944.97;5059695;28;20040;-65
2023/10/19 03:09:13;;;;;;;16.23;11.60;;;;;;;12.38;100.00;98940.91;5051112;28;20020;-65
2023/10/19 03:11:42;;;;;;;22.05;12.00;;;;;;;12.36;100.00;98937.53;5055791;28;20841;-64
2023/10/19 03:14:11;;;;;;;15.50;10.93;;;;;;;12.35;100.00;98928.91;5055478;28;20542;-64
2023/10/19 03:16:41;;;;;;;18.10;11.65;;;;;;;12.30;100.00;98933.47;5052714;28;20446;-64
2023/10/19 03:19:07;;;;;;;19.15;11.52;;;;;;;12.33;100.00;98927.31;5060645;28;20037;-64
2023/10/19 03:21:41;;;;;;;16.75;11.00;;;;;;;12.27;100.00;98919.81;5050802;28;20051;-65
2023/10/19 03:24:12;;;;;;;17.98;11.90;;;;;;;12.21;100.00;98918.34;5051498;28;20020;-64
2023/10/19 03:26:39;;;;;;;21.58;12.30;;;;;;;12.20;100.00;98919.25;5032951;28;20163;-64
2023/10/19 03:29:12;;;;;;;19.75;11.57;;;;;;;12.22;100.00;98907.09;5034608;28;20041;-64
2023/10/19 03:31:43;;;;;;;20.42;11.38;;;;;;;12.26;100.00;98903.44;5046656;28;20039;-65
2023/10/19 03:34:23;;;;;;;22.63;11.95;;;;;;;12.31;100.00;98903.22;5046916;28;20051;-64
2023/10/19 03:36:50;;;;;;;19.27;12.75;;;;;;;12.33;100.00;98904.00;5034891;28;20047;-64
2023/10/19 03:39:17;;;;;;;16.92;11.43;;;;;;;12.34;100.00;98903.09;5033630;28;21260;-65
2023/10/19 03:41:44;;;;;;;18.75;11.43;;;;;;;12.34;100.00;98903.94;5065538;28;20027;-65
2023/10/19 03:44:24;;;;;;;15.80;11.05;;;;;;;12.39;100.00;98901.97;5062183;28;20686;-65
2023/10/19 03:46:53;;;;;;;21.23;12.15;;;;;;;12.41;100.00;98899.31;5055360;28;20095;-65
2023/10/19 03:49:22;;;;;;;19.75;11.43;;;;;;;12.47;100.00;98904.22;5058753;28;20036;-65
2023/10/19 03:52:20;;;;;;;13.75;10.32;;;;;;;12.43;100.00;98900.91;5055127;28;20615;-65
2023/10/19 03:54:47;;;;;;;16.40;11.18;;;;;;;12.44;100.00;98891.38;5028993;28;20056;-65
2023/10/19 03:57:52;;;;;;;18.92;11.07;;;;;;;12.38;100.00;98886.47;5040093;28;20027;-68
2023/10/19 04:00:10;;;;;;;14.57;10.40;;;;;;;12.33;100.00;98886.72;5024480;28;20080;-66
2023/10/19 04:02:38;;;;;;;14.73;10.95;;;;;;;12.38;100.00;98889.06;5035909;28;20089;-65
2023/10/19 04:05:04;;;;;;;18.23;11.13;;;;;;;12.35;100.00;98881.44;5030274;28;20040;-65
2023/10/19 04:07:31;;;;;;;15.95;10.32;;;;;;;12.28;100.00;98886.09;5036636;28;20466;-65
2023/10/19 04:09:59;;;;;;;15.15;10.30;;;;;;;12.20;100.00;98880.38;5032855;28;20124;-65
2023/10/19 04:12:28;;;;;;;15.32;10.18;;;;;;;12.14;100.00;98880.66;5035069;28;20033;-65
2023/10/19 04:14:56;;;;;;;21.63;11.80;;;;;;;12.20;100.00;98875.22;5033840;28;20028;-65
2023/10/19 04:17:23;;;;;;;16.30;10.27;;;;;;;12.20;100.00;98882.97;5036317;28;20033;-65
2023/10/19 04:19:51;;;;;;;17.02;10.77;;;;;;;12.21;100.00;98876.06;5032630;28;20064;-65
2023/10/19 04:22:23;;;;;;;14.02;10.43;;;;;;;12.22;100.00;98869.97;5036831;28;20048;-65
2023/10/19 04:24:52;;;;;;;13.68;10.07;;;;;;;12.25;100.00;98869.84;5044583;28;20036;-65
2023/10/19 04:27:22;;;;;;;14.50;9.35;;;;;;;12.23;100.00;98880.25;5056101;28;20030;-66
2023/10/19 04:29:49;;;;;;;16.27;10.70;;;;;;;12.21;100.00;98876.91;5056823;28;20491;-66
2023/10/19 04:32:23;;;;;;;18.70;10.95;;;;;;;12.36;100.00;98878.81;5033359;28;20053;-65
2023/10/19 04:34:49;;;;;;;19.10;10.73;;;;;;;12.42;100.00;98873.34;5032402;28;20131;-65
2023/10/19 04:37:18;;;;;;;19.52;11.63;;;;;;;12.53;100.00;98857.28;5045357;28;20362;-65
2023/10/19 04:39:44;;;;;;;19.08;11.75;;;;;;;12.54;100.00;98865.91;5051161;28;20032;-65
2023/10/19 04:42:09;;;;;;;18.55;12.20;;;;;;;12.64;100.00;98854.19;5052440;28;20048;-65
2023/10/19 04:44:35;;;;;;;16.95;11.40;;;;;;;12.73;100.00;98856.38;5055012;28;20604;-68
2023/10/19 04:47:00;;;;;;;17.67;11.00;;;;;;;12.73;100.00;98861.53;5054264;28;20044;-68
2023/10/19 04:49:26;;;;;;;17.42;11.23;;;;;;;12.72;100.00;98855.53;5053861;28;20045;-68
2023/10/19 04:51:51;;;;;;;19.08;11.07;;;;;;;12.75;100.00;98854.53;5052721;28;20044;-69
2023/10/19 04:54:17;;;;;;;19.17;10.60;;;;;;;12.79;100.00;98869.84;5043913;28;20040;-67
2023/10/19 04:56:42;;;;;;;16.27;10.50;;;;;;;12.85;100.00;98873.94;5057370;28;20753;-68
2023/10/19 04:59:08;;;;;;;17.00;10.68;;;;;;;12.90;100.00;98866.75;5043044;28;20120;-68
2023/10/19 05:01:33;;;;;;;15.38;10.25;;;;;;;12.88;100.00;98868.59;5045359;28;20099;-68
2023/10/19 05:04:00;;;;;;;17.70;11.02;;;;;;;12.89;100.00;98862.47;5029632;28;20065;-69
2023/10/19 05:06:25;;;;;;;14.45;8.95;;;;;;;12.88;100.00;98860.81;5034407;28;20037;-68
2023/10/19 05:08:52;;;;;;;15.20;9.50;;;;;;;12.93;100.00;98869.22;5035712;28;20025;-68
2023/10/19 05:11:18;;;;;;;18.25;11.10;;;;;;;12.93;100.00;98867.47;5030301;28;20096;-68
2023/10/19 05:13:43;;;;;;;15.05;10.88;;;;;;;12.98;100.00;98873.25;5045005;28;20278;-68
2023/10/19 05:16:09;;;;;;;18.35;11.25;;;;;;;12.96;100.00;98874.25;5034970;28;20037;-68
2023/10/19 05:18:35;;;;;;;17.70;10.93;;;;;;;12.98;100.00;98872.41;5034822;28;20056;-68
2023/10/19 05:21:00;;;;;;;16.73;10.93;;;;;;;12.98;100.00;98862.88;5037508;28;21020;-67
2023/10/19 05:23:27;;;;;;;18.05;11.98;;;;;;;13.02;100.00;98870.56;5039137;28;20555;-68
2023/10/19 05:26:02;;;;;;;19.98;12.50;;;;;;;13.04;100.00;98860.94;5061257;28;20739;-70
2023/10/19 05:28:28;;;;;;;18.45;12.68;;;;;;;13.05;100.00;98855.69;5045318;28;20048;-67
2023/10/19 05:30:54;;;;;;;18.58;11.05;;;;;;;13.07;100.00;98851.25;5059825;28;20040;-67
2023/10/19 05:33:23;;;;;;;18.50;10.65;;;;;;;13.11;100.00;98857.97;5055314;28;20085;-67
2023/10/19 05:35:50;;;;;;;21.92;11.60;;;;;;;13.17;100.00;98860.28;5057608;28;20083;-67
2023/10/19 05:38:16;;;;;;;20.40;11.15;;;;;;;13.21;100.00;98859.19;5056407;28;20043;-68
2023/10/19 05:40:45;;;;;;;20.40;11.57;;;;;;;13.24;100.00;98859.03;5056201;28;20036;-65
2023/10/19 05:43:12;;;;;;;19.45;12.38;;;;;;;13.29;100.00;98859.69;5058982;28;20048;-64
2023/10/19 05:45:38;;;;;;;19.48;12.77;;;;;;;13.28;100.00;98855.38;5057519;28;20794;-64
2023/10/19 05:48:08;;;;;;;25.92;19.38;;;;;;;13.32;100.00;98867.31;5061672;28;20028;-65
2023/10/19 05:50:35;;;;;;;21.55;14.52;;;;;;;13.30;100.00;98860.50;5057796;28;20450;-64
2023/10/19 05:53:03;;;;;;;22.90;12.13;;;;;;;13.30;100.00;98871.72;5062321;28;20459;-64
2023/10/19 05:55:28;;;;;;;19.95;10.68;;;;;;;13.37;100.00;98877.44;5062146;28;20127;-64
2023/10/19 05:57:54;;;;;;;16.48;10.73;;;;;;;13.40;100.00;98872.94;5058168;28;20045;-64
2023/10/19 06:00:20;;;;;;;17.27;10.90;;;;;;;13.44;100.00;98878.84;5057383;28;20628;-64
2023/10/19 06:02:48;;;;;;;17.35;11.18;;;;;;;13.48;100.00;98881.19;5054381;28;20832;-63
2023/10/19 06:05:15;;;;;;;23.75;12.13;;;;;;;13.51;100.00;98878.44;5051084;28;20044;-64
2023/10/19 06:07:45;;;;;;;18.15;10.95;;;;;;;13.56;100.00;98878.22;5062499;28;20075;-65
2023/10/19 06:10:15;;;;;;;17.20;10.73;;;;;;;13.56;100.00;98876.44;5051188;28;20607;-65
2023/10/19 06:12:43;;;;;;;19.05;11.25;;;;;;;13.57;100.00;98878.13;5041480;28;20091;-65
2023/10/19 06:15:10;;;;;;;16.77;11.88;;;;;;;13.58;100.00;98884.16;5037727;28;20707;-64
2023/10/19 06:17:37;;;;;;;17.00;11.73;;;;;;;13.62;100.00;98890.03;5033877;28;20033;-65
2023/10/19 06:20:03;;;;;;;18.30;11.43;;;;;;;13.64;100.00;98883.00;5037096;28;20045;-65
2023/10/19 06:22:30;;;;;;;17.92;11.75;;;;;;;13.65;100.00;98889.88;5038029;28;20033;-70
2023/10/19 06:24:55;;;;;;;22.08;11.85;;;;;;;13.66;100.00;98887.19;5023704;28;20102;-69
2023/10/19 06:27:21;;;;;;;19.60;11.35;;;;;;;13.71;100.00;98893.00;5060358;28;20501;-65
2023/10/19 06:29:46;;;;;;;20.38;11.68;;;;;;;13.75;100.00;98884.13;5032363;28;20809;-65
2023/10/19 06:32:12;;;;;;;20.77;11.30;;;;;;;13.80;100.00;98884.72;5056903;28;20543;-65
2023/10/19 06:34:38;;;;;;;17.60;11.73;;;;;;;13.84;100.00;98888.88;5059100;28;20123;-65
2023/10/19 06:37:07;;;;;;;15.55;10.00;;;;;;;13.86;100.00;98887.03;5060640;28;20575;-65
2023/10/19 06:39:32;;;;;;;14.82;10.68;;;;;;;13.86;100.00;98892.22;5060031;28;20151;-65
2023/10/19 06:41:58;;;;;;;16.27;10.40;;;;;;;13.87;100.00;98899.09;5053301;28;20438;-65
2023/10/19 06:44:24;;;;;;;18.77;10.88;;;;;;;13.88;100.00;98894.75;5054386;28;20036;-64
2023/10/19 06:46:49;;;;;;;16.40;10.73;;;;;;;13.88;100.00;98899.94;5057453;28;20032;-65
2023/10/19 06:49:15;;;;;;;18.67;11.18;;;;;;;13.90;100.00;98890.31;5053223;28;20071;-65
2023/10/19 06:51:40;;;;;;;15.18;10.65;;;;;;;13.93;100.00;98893.59;5054794;28;20063;-65
2023/10/19 06:54:08;;;;;;;17.92;10.55;;;;;;;13.95;100.00;98903.91;5031542;28;20025;-65
2023/10/19 06:56:36;;;;;;;16.65;10.63;;;;;;;13.97;100.00;98894.28;5052381;28;20041;-64
2023/10/19 06:59:05;;;;;;;15.02;9.23;;;;;;;14.00;100.00;98894.13;5054343;28;20041;-65
2023/10/19 07:01:32;;;;;;;16.35;9.68;;;;;;;14.04;100.00;98896.47;5062866;28;20201;-65
2023/10/19 07:03:58;;;;;;;19.05;10.27;;;;;;;14.09;100.00;98899.69;5056334;28;20098;-65
2023/10/19 07:06:24;;;;;;;15.73;8.48;;;;;;;14.12;100.00;98903.88;5040160;28;20028;-65
2023/10/19 07:08:50;;;;;;;17.92;9.02;;;;;;;14.16;100.00;98905.38;5055237;28;20028;-65
2023/10/19 07:11:15;;;;;;;14.45;8.80;;;;;;;14.17;100.00;98908.81;5039592;28;20051;-65
2023/10/19 07:13:41;;;;;;;13.48;8.65;;;;;;;14.19;100.00;98913.00;5035588;28;20033;-64
2023/10/19 07:16:09;;;;;;;11.85;8.20;;;;;;;14.22;100.00;98912.03;5057818;28;20094;-65
2023/10/19 07:18:36;;;;;;;14.75;8.60;;;;;;;14.22;100.00;98907.66;5053725;28;20052;-64
2023/10/19 07:21:09;;;;;;;12.57;8.13;;;;;;;14.24;100.00;98907.59;5054681;28;20032;-65
2023/10/19 07:23:37;;;;;;;13.18;8.32;;;;;;;14.27;100.00;98904.81;5055847;28;20036;-65
2023/10/19 07:26:03;;;;;;;11.50;7.97;;;;;;;14.29;100.00;98906.41;5054255;28;20151;-65
2023/10/19 07:28:31;;;;;;;17.23;8.23;;;;;;;14.30;100.00;98905.50;5065651;28;20025;-65
2023/10/19 07:30:57;;;;;;;12.75;8.48;;;;;;;14.33;100.00;98907.09;5060099;28;20067;-65
2023/10/19 07:33:23;;;;;;;10.20;7.30;;;;;;;14.36;100.00;98925.97;5060433;28;20024;-65
2023/10/19 07:35:54;;;;;;;11.82;7.75;;;;;;;14.37;100.00;98917.25;5052576;28;20115;-65
2023/10/19 07:38:22;;;;;;;10.55;6.88;;;;;;;14.41;100.00;98926.59;5053593;28;20040;-65
2023/10/19 07:40:49;;;;;;;9.02;6.97;;;;;;;14.45;100.00;98922.06;5054081;28;20033;-65
2023/10/19 07:43:14;;;;;;;9.88;6.45;;;;;;;14.51;100.00;98929.56;5046023;28;20036;-66
2023/10/19 07:45:40;;;;;;;9.77;6.22;;;;;;;14.56;100.00;98920.56;5053315;28;20036;-65
2023/10/19 07:48:06;;;;;;;11.40;6.60;;;;;;;14.62;100.00;98922.84;5052055;28;20119;-65
2023/10/19 07:50:40;;;;;;;10.00;6.25;;;;;;;14.73;100.00;98914.44;5057495;28;20792;-65
2023/10/19 07:53:06;;;;;;;10.60;6.45;;;;;;;14.79;100.00;98921.06;5054414;28;20050;-66
2023/10/19 07:55:32;;;;;;;9.98;6.07;;;;;;;14.84;100.00;98922.50;5057494;28;20040;-65
2023/10/19 07:58:06;;;;;;;9.20;6.70;;;;;;;14.88;100.00;98916.22;5056738;28;20047;-65
2023/10/19 08:00:33;;;;;;;9.73;5.57;;;;;;;14.95;100.00;98908.91;5048820;28;20040;-64
2023/10/19 08:03:00;;;;;;;10.38;6.38;;;;;;;14.99;100.00;98900.84;5055670;28;20265;-65
2023/10/19 08:05:26;;;;;;;12.02;6.30;;;;;;;15.04;100.00;98901.44;5050785;28;20756;-65
2023/10/19 08:07:52;;;;;;;12.95;6.78;;;;;;;15.12;100.00;98903.59;5056073;28;20042;-65
2023/10/19 08:10:19;;;;;;;9.40;6.28;;;;;;;15.18;100.00;98903.25;5051187;28;20072;-64
2023/10/19 08:12:50;;;;;;;11.52;6.15;;;;;;;15.27;100.00;98892.31;5053254;28;20037;-65
2023/10/19 08:15:16;;;;;;;11.73;6.55;;;;;;;15.41;100.00;98897.56;5048213;28;20035;-64
2023/10/19 08:17:45;;;;;;;15.13;6.95;;;;;;;15.52;100.00;98891.75;5050045;28;20107;-65
2023/10/19 08:20:24;;;;;;;11.07;6.35;;;;;;;15.64;100.00;98883.28;5047043;28;20043;-65
2023/10/19 08:23:01;;;;;;;10.32;5.22;;;;;;;15.74;100.00;98887.00;5050540;28;20057;-65
2023/10/19 08:25:30;;;;;;;12.48;5.20;;;;;;;15.86;100.00;98881.06;5046262;28;20037;-65
2023/10/19 08:27:58;;;;;;;11.20;5.45;;;;;;;15.96;100.00;98887.41;5047636;28;20041;-65
2023/10/19 08:30:24;;;;;;;13.15;5.70;;;;;;;15.97;100.00;98878.63;5047258;28;20526;-66
2023/10/19 08:32:52;;;;;;;8.23;4.78;;;;;;;16.02;100.00;98879.22;5047130;28;20044;-68
2023/10/19 08:35:24;;;;;;;10.35;5.50;;;;;;;15.96;100.00;98887.41;5056443;28;20445;-66
2023/10/19 08:37:50;;;;;;;15.07;4.70;;;;;;;15.92;100.00;98892.88;5062050;28;20099;-66
2023/10/19 08:40:17;;;;;;;12.30;5.68;;;;;;;15.87;100.00;98890.56;5053509;28;20059;-67
2023/10/19 08:42:47;;;;;;;10.88;4.43;;;;;;;15.85;100.00;98879.38;5053383;28;20461;-67
2023/10/19 08:45:14;;;;;;;7.35;4.10;;;;;;;15.83;100.00;98876.03;5048817;28;20073;-66
2023/10/19 08:47:56;;;;;;;10.65;4.85;;;;;;;15.85;100.00;98876.75;5054344;28;20056;-68
2023/10/19 08:50:23;;;;;;;10.75;4.47;;;;;;;15.90;100.00;98885.16;5060917;28;20562;-66
2023/10/19 08:52:54;;;;;;;8.77;4.63;;;;;;;15.92;100.00;98882.44;5059169;28;20067;-66
2023/10/19 08:55:20;;;;;;;9.88;4.00;;;;;;;15.97;100.00;98878.63;5053192;28;20207;-66
2023/10/19 08:57:49;;;;;;;14.85;4.05;;;;;;;16.02;100.00;98873.16;5036847;28;20032;-66
2023/10/19 09:00:18;;;;;;;10.23;4.00;;;;;;;16.11;100.00;98870.84;5065444;28;20036;-66
2023/10/19 09:02:46;;;;;;;8.90;4.40;;;;;;;16.16;100.00;98871.41;5060245;28;20021;-65
2023/10/19 09:05:19;;;;;;;11.07;3.65;;;;;;;16.26;100.00;98863.84;5058540;28;20063;-66
2023/10/19 09:08:06;;;;;;;6.75;3.47;;;;;;;16.32;100.00;98848.66;5064044;28;20075;-66
2023/10/19 09:10:31;;;;;;;8.07;4.00;;;;;;;16.32;100.00;98851.25;5050959;28;20036;-66
2023/10/19 09:13:02;;;;;;;8.85;3.63;;;;;;;16.30;100.00;98850.53;5055928;28;20122;-66
2023/10/19 09:15:32;;;;;;;8.15;3.30;;;;;;;16.21;100.00;98852.84;5062588;28;20024;-68
2023/10/19 09:17:58;;;;;;;7.65;3.25;;;;;;;16.17;100.00;98849.63;5061782;28;20039;-68
2023/10/19 09:20:27;;;;;;;8.45;3.58;;;;;;;16.16;100.00;98847.94;5070111;28;20358;-68
2023/10/19 09:22:57;;;;;;;7.70;3.50;;;;;;;16.30;100.00;98840.09;5059872;28;20055;-67
2023/10/19 09:25:23;;;;;;;12.68;3.50;;;;;;;16.52;100.00;98841.34;5054967;28;20094;-67
2023/10/19 09:27:48;;;;;;;7.00;2.95;;;;;;;16.70;100.00;98838.44;5057084;28;20040;-66
2023/10/19 09:30:18;;;;;;;7.20;3.45;;;;;;;17.02;100.00;98825.94;5058304;28;20038;-66
2023/10/19 09:32:46;;;;;;;7.97;3.10;;;;;;;17.15;100.00;98826.81;5033859;28;20078;-66
2023/10/19 09:35:15;;;;;;;9.82;3.40;;;;;;;17.31;100.00;98824.00;5055417;28;20092;-67
2023/10/19 09:37:44;;;;;;;10.65;2.60;;;;;;;17.50;98.94;98813.19;5034930;28;20131;-66
2023/10/19 09:40:12;;;;;;;8.93;2.40;;;;;;;17.53;98.62;98805.97;5049528;28;20039;-66
2023/10/19 09:42:45;;;;;;;6.40;2.80;;;;;;;17.54;100.00;98806.81;5053942;28;20063;-66
2023/10/19 09:45:12;;;;;;;9.88;2.80;;;;;;;17.53;98.37;98805.13;5059813;28;20387;-66
2023/10/19 09:47:41;;;;;;;10.18;2.80;;;;;;;17.56;98.47;98812.75;5026375;28;20041;-66
2023/10/19 09:50:07;;;;;;;9.05;3.13;;;;;;;17.58;99.58;98816.09;5034974;28;20042;-65
2023/10/19 09:52:37;;;;;;;11.35;2.70;;;;;;;17.58;99.64;98811.72;5048217;28;20051;-65
2023/10/19 09:55:25;;;;;;;7.97;2.05;;;;;;;17.65;99.48;98812.13;5055020;28;20043;-65
2023/10/19 09:57:56;;;;;;;6.82;2.35;;;;;;;17.72;99.86;98814.22;5049913;28;20675;-66
2023/10/19 10:00:23;;;;;;;7.35;2.70;;;;;;;17.84;98.60;98817.78;5033906;28;20037;-65
2023/10/19 10:02:50;;;;;;;9.60;2.55;;;;;;;18.01;95.64;98822.72;5030999;28;20080;-66
2023/10/19 10:05:54;;;;;;;7.07;2.33;;;;;;;18.27;95.46;98815.66;5050928;28;20074;-65
2023/10/19 10:08:23;;;;;;;7.68;2.55;;;;;;;18.47;94.58;98815.06;5055654;28;20029;-65
2023/10/19 10:10:50;;;;;;;7.88;1.90;;;;;;;18.66;93.12;98815.44;5036103;28;20411;-66
2023/10/19 10:13:30;;;;;;;7.97;2.47;;;;;;;18.83;90.55;98798.50;5051950;28;20576;-65
2023/10/19 10:15:57;;;;;;;6.18;1.73;;;;;;;18.91;91.63;98801.41;5053308;28;20052;-65
2023/10/19 10:18:27;;;;;;;9.02;1.90;;;;;;;18.95;89.17;98789.78;5051173;28;20119;-65
2023/10/19 10:21:15;;;;;;;9.98;2.45;;;;;;;18.97;88.92;98796.56;5054855;28;20273;-65
2023/10/19 10:24:00;;;;;;;9.65;2.40;;;;;;;18.95;90.41;98811.56;5055599;28;20139;-65
2023/10/19 10:26:29;;;;;;;6.72;2.08;;;;;;;18.93;90.01;98803.00;5055486;28;20051;-61
2023/10/19 10:29:11;;;;;;;6.20;1.90;;;;;;;18.82;92.00;98818.59;5053319;28;20078;-62
2023/10/19 10:31:42;;;;;;;7.97;2.33;;;;;;;18.68;92.28;98805.69;5051537;28;20511;-62
2023/10/19 10:34:09;;;;;;;11.25;2.80;;;;;;;18.52;92.65;98811.19;5052821;28;20216;-61
2023/10/19 10:37:02;;;;;;;7.30;2.05;;;;;;;18.42;93.53;98811.97;5052663;28;20128;-61
2023/10/19 10:39:27;;;;;;;5.85;1.77;;;;;;;18.37;93.71;98804.44;5044054;28;20040;-61
2023/10/19 10:41:57;;;;;;;5.50;1.60;;;;;;;18.38;94.24;98806.09;5056169;28;20051;-61
2023/10/19 10:44:42;;;;;;;9.68;1.58;;;;;;;18.31;93.28;98801.44;5054736;28;20064;-61
2023/10/19 10:47:21;;;;;;;6.03;1.80;;;;;;;18.29;93.48;98805.91;5055657;28;20044;-61
2023/10/19 10:49:54;;;;;;;6.13;1.60;;;;;;;18.31;93.23;98798.81;5056439;28;20037;-61
2023/10/19 10:52:31;;;;;;;7.45;2.40;;;;;;;18.38;91.57;98789.56;5049574;28;20040;-61
2023/10/19 10:55:18;;;;;;;6.35;2.05;;;;;;;18.46;92.21;98784.66;5054041;28;20755;-68
2023/10/19 10:57:44;;;;;;;4.78;1.90;;;;;;;18.49;91.55;98779.19;5037899;28;20059;-68
2023/10/19 11:00:25;;;;;;;10.38;2.70;;;;;;;18.52;89.05;98779.78;5056884;28;20033;-68
2023/10/19 11:03:04;;;;;;;4.75;1.58;;;;;;;18.52;90.40;98779.78;5060105;28;20036;-68
2023/10/19 11:05:29;;;;;;;6.28;1.40;;;;;;;18.54;90.24;98777.06;5050717;28;20079;-68
2023/10/19 11:08:13;;;;;;;4.80;1.42;;;;;;;18.58;89.93;98789.00;5056076;28;20507;-68
2023/10/19 11:10:42;;;;;;;6.03;1.60;;;;;;;18.61;89.84;98775.66;5051938;28;20036;-68
2023/10/19 11:13:11;;;;;;;6.10;1.75;;;;;;;18.71;89.76;98773.22;5053406;28;20501;-69
2023/10/19 11:15:39;;;;;;;8.48;2.38;;;;;;;18.83;88.66;98767.94;5054397;28;20044;-70
2023/10/19 11:18:07;;;;;;;9.25;2.30;;;;;;;18.82;88.45;98763.63;5040763;28;20039;-68
2023/10/19 11:20:33;;;;;;;9.45;2.25;;;;;;;18.88;88.71;98767.59;5057585;28;20071;-68
2023/10/19 11:23:02;;;;;;;9.75;3.20;;;;;;;18.89;89.69;98759.66;5054665;28;20037;-69
2023/10/19 11:25:29;;;;;;;8.00;2.50;;;;;;;18.78;88.56;98743.88;5054986;28;20064;-68
2023/10/19 11:27:59;;;;;;;6.20;2.45;;;;;;;18.74;89.16;98746.81;5052035;28;20487;-68
2023/10/19 11:30:31;;;;;;;11.82;3.28;;;;;;;18.62;90.84;98740.72;5054086;28;20119;-69
2023/10/19 11:32:57;;;;;;;7.88;2.72;;;;;;;18.57;92.29;98742.84;5036170;28;20066;-71
2023/10/19 11:35:27;;;;;;;11.85;5.20;;;;;;;18.45;93.29;98743.72;5057396;28;20834;-69
2023/10/19 11:37:55;;;;;;;13.80;7.10;;;;;;;18.40;93.27;98738.00;5054360;28;20079;-69
2023/10/19 11:40:22;;;;;;;9.57;3.75;;;;;;;18.35;93.63;98740.94;5057225;28;20086;-69
2023/10/19 11:42:51;;;;;;;7.50;4.13;;;;;;;18.33;94.44;98734.16;5057644;28;20040;-69
2023/10/19 11:45:17;;;;;;;14.73;3.53;;;;;;;18.22;95.73;98739.31;5054787;28;20538;-68